Time;durP1;ratioP1;P1;durP2;ratioP2;P2;SDS_P1;SDS_P2;PMS_P1;PMS_P2;Temp;Humidity;BMP_temperature;BMP_pressure;BME280_temperature;BME280_humidity;BME280_pressure;Samples;Min_cycle;Max_cycle;Signal;HPM_P1;HPM_P2
2021/11/16 00:01:45;;;;;;;;;32.67;25.33;;;;;;;;4908826;29;44818;-81
2021/11/16 00:04:10;;;;;;;;;35.33;27.00;;;;;;;;4891871;29;45366;-81
2021/11/16 00:06:36;;;;;;;;;32.00;28.00;;;;;;;;4892836;29;46736;-81
2021/11/16 00:09:03;;;;;;;;;31.67;26.67;;;;;;;;4892462;29;45517;-82
2021/11/16 00:11:29;;;;;;;;;28.67;24.00;;;;;;;;4910636;29;44786;-82
2021/11/16 00:13:55;;;;;;;;;35.00;29.00;;;;;;;;4910122;29;45465;-81
2021/11/16 00:16:20;;;;;;;;;30.33;29.67;;;;;;;;4909436;29;45842;-81
2021/11/16 00:18:47;;;;;;;;;36.33;27.00;;;;;;;;4911393;29;44880;-80
2021/11/16 00:21:13;;;;;;;;;31.67;24.00;;;;;;;;4910475;29;45404;-80
2021/11/16 00:23:40;;;;;;;;;30.67;29.00;;;;;;;;4895170;29;45342;-80
2021/11/16 00:26:06;;;;;;;;;25.67;21.67;;;;;;;;4891811;29;47007;-81
2021/11/16 00:28:32;;;;;;;;;32.67;26.67;;;;;;;;4892679;29;45585;-80
2021/11/16 00:30:57;;;;;;;;;28.67;27.33;;;;;;;;4892255;29;45488;-81
2021/11/16 00:33:23;;;;;;;;;23.00;22.00;;;;;;;;4910207;28;45424;-81
2021/11/16 00:35:49;;;;;;;;;25.00;19.33;;;;;;;;4892713;29;47623;-80
2021/11/16 00:38:15;;;;;;;;;25.33;22.00;;;;;;;;4894795;29;45679;-80
2021/11/16 00:40:41;;;;;;;;;27.67;24.67;;;;;;;;4894814;29;44878;-80
2021/11/16 00:43:09;;;;;;;;;24.33;21.33;;;;;;;;4911218;29;45347;-80
2021/11/16 00:45:36;;;;;;;;;24.00;21.33;;;;;;;;4894568;29;47061;-82
2021/11/16 00:48:02;;;;;;;;;19.33;18.00;;;;;;;;4912073;29;45472;-81
2021/11/16 00:50:27;;;;;;;;;21.33;21.00;;;;;;;;4912495;29;45841;-81
2021/11/16 00:52:53;;;;;;;;;26.00;21.67;;;;;;;;4910647;29;45435;-81
2021/11/16 00:55:18;;;;;;;;;25.33;23.33;;;;;;;;4894076;29;47176;-81
2021/11/16 00:57:44;;;;;;;;;30.67;22.67;;;;;;;;4894711;29;45518;-82
2021/11/16 01:00:10;;;;;;;;;21.67;20.67;;;;;;;;4896711;29;45421;-80
2021/11/16 01:02:36;;;;;;;;;22.33;21.33;;;;;;;;4895553;29;45513;-81
2021/11/16 01:05:02;;;;;;;;;26.67;24.33;;;;;;;;4912259;29;45878;-81
2021/11/16 01:07:28;;;;;;;;;24.00;22.00;;;;;;;;4913682;29;45186;-81
2021/11/16 01:09:53;;;;;;;;;18.00;17.00;;;;;;;;4911860;29;45430;-82
2021/11/16 01:12:19;;;;;;;;;24.00;19.67;;;;;;;;4895731;29;45438;-81
2021/11/16 01:14:45;;;;;;;;;24.67;17.00;;;;;;;;4893738;29;48432;-81
2021/11/16 01:20:16;;;;;;;;;27.00;20.67;;;;;;;;4910700;29;45298;-81
2021/11/16 01:22:42;;;;;;;;;24.33;16.33;;;;;;;;4895154;29;45040;-81
2021/11/16 01:25:08;;;;;;;;;16.33;16.00;;;;;;;;4894802;29;46714;-81
2021/11/16 01:27:35;;;;;;;;;23.33;18.00;;;;;;;;4896102;29;44829;-82
2021/11/16 01:30:03;;;;;;;;;24.00;19.33;;;;;;;;4895242;29;45510;-81
2021/11/16 01:32:38;;;;;;;;;21.33;17.00;;;;;;;;4910857;28;45438;-80
2021/11/16 01:35:03;;;;;;;;;23.00;18.67;;;;;;;;4893622;29;47590;-80
2021/11/16 01:37:29;;;;;;;;;25.00;21.00;;;;;;;;4891305;29;45428;-80
2021/11/16 01:39:55;;;;;;;;;22.00;17.67;;;;;;;;4893172;29;45423;-81
2021/11/16 01:42:21;;;;;;;;;22.67;18.33;;;;;;;;4910309;29;45391;-81
2021/11/16 01:44:48;;;;;;;;;22.00;17.00;;;;;;;;4893459;29;47147;-81
2021/11/16 01:47:13;;;;;;;;;18.00;15.33;;;;;;;;4892916;29;45443;-81
2021/11/16 01:49:39;;;;;;;;;18.33;16.33;;;;;;;;4910526;29;45483;-81
2021/11/16 01:52:05;;;;;;;;;17.67;17.00;;;;;;;;4895900;29;45667;-81
2021/11/16 01:54:30;;;;;;;;;13.33;12.00;;;;;;;;4911676;29;45100;-81
2021/11/16 01:56:56;;;;;;;;;13.00;9.33;;;;;;;;4911711;29;45418;-81
2021/11/16 01:59:21;;;;;;;;;20.33;14.33;;;;;;;;4912218;29;45501;-81
2021/11/16 02:01:48;;;;;;;;;19.00;13.67;;;;;;;;4913924;29;44927;-81
2021/11/16 02:04:14;;;;;;;;;15.33;14.00;;;;;;;;4892741;29;47085;-80
2021/11/16 02:06:41;;;;;;;;;16.33;16.33;;;;;;;;4892139;29;45385;-81
2021/11/16 02:09:08;;;;;;;;;18.00;13.00;;;;;;;;4894162;29;45898;-81
2021/11/16 02:11:34;;;;;;;;;19.33;16.67;;;;;;;;4894011;29;45739;-82
2021/11/16 02:14:00;;;;;;;;;20.33;15.33;;;;;;;;4893863;29;47064;-80
2021/11/16 02:19:29;;;;;;;;;20.00;13.00;;;;;;;;4912409;29;45514;-80
2021/11/16 02:21:54;;;;;;;;;11.67;11.33;;;;;;;;4895113;29;45592;-83
2021/11/16 02:24:20;;;;;;;;;17.00;14.00;;;;;;;;4911700;29;45442;-82
2021/11/16 02:26:46;;;;;;;;;20.67;14.67;;;;;;;;4893901;29;45543;-80
2021/11/16 02:29:11;;;;;;;;;18.00;17.33;;;;;;;;4909482;29;45397;-81
2021/11/16 02:31:36;;;;;;;;;20.00;16.33;;;;;;;;4895068;29;45813;-81
2021/11/16 02:34:03;;;;;;;;;18.33;14.00;;;;;;;;4911389;28;46010;-81
2021/11/16 02:36:35;;;;;;;;;16.33;13.00;;;;;;;;4894923;29;45505;-81
2021/11/16 02:39:01;;;;;;;;;15.67;12.67;;;;;;;;4911430;29;45446;-80
2021/11/16 02:41:31;;;;;;;;;17.33;14.00;;;;;;;;4910806;29;45449;-81
2021/11/16 02:43:59;;;;;;;;;17.33;12.67;;;;;;;;4894301;29;47615;-81
2021/11/16 02:46:24;;;;;;;;;13.33;13.33;;;;;;;;4912776;28;45471;-81
2021/11/16 02:48:50;;;;;;;;;16.33;15.00;;;;;;;;4911391;29;45478;-81
2021/11/16 02:51:15;;;;;;;;;17.00;17.00;;;;;;;;4910202;29;45400;-81
2021/11/16 02:53:41;;;;;;;;;16.67;14.67;;;;;;;;4910193;29;45478;-82
2021/11/16 02:56:08;;;;;;;;;19.00;16.33;;;;;;;;4893508;28;45568;-82
2021/11/16 02:58:34;;;;;;;;;9.00;8.00;;;;;;;;4909748;29;45400;-81
2021/11/16 03:01:03;;;;;;;;;17.33;15.00;;;;;;;;4909590;29;45387;-81
2021/11/16 03:03:28;;;;;;;;;17.33;16.33;;;;;;;;4892331;29;47423;-81
2021/11/16 03:05:54;;;;;;;;;20.33;14.33;;;;;;;;4892671;29;45434;-81
2021/11/16 03:08:22;;;;;;;;;16.33;15.00;;;;;;;;4910496;29;45425;-81
2021/11/16 03:10:50;;;;;;;;;19.00;14.00;;;;;;;;4893602;29;45489;-81
2021/11/16 03:13:15;;;;;;;;;17.00;12.00;;;;;;;;4909558;29;46360;-80
2021/11/16 03:15:43;;;;;;;;;17.67;16.33;;;;;;;;4891257;29;45472;-83
2021/11/16 03:18:11;;;;;;;;;22.00;19.67;;;;;;;;4892228;29;45471;-82
2021/11/16 03:20:37;;;;;;;;;20.33;14.67;;;;;;;;4910846;28;45525;-82
2021/11/16 03:25:43;;;;;;;;;23.67;20.33;;;;;;;;4912244;29;44721;-82
2021/11/16 03:28:10;;;;;;;;;21.00;19.00;;;;;;;;4894447;29;45550;-82
2021/11/16 03:30:36;;;;;;;;;18.00;15.33;;;;;;;;4894240;29;45451;-82
2021/11/16 03:33:04;;;;;;;;;23.33;16.67;;;;;;;;4893320;29;46906;-82
2021/11/16 03:35:36;;;;;;;;;18.00;18.00;;;;;;;;4911039;28;45365;-81
2021/11/16 03:38:02;;;;;;;;;22.00;18.67;;;;;;;;4893532;29;45700;-81
2021/11/16 03:40:30;;;;;;;;;18.33;17.67;;;;;;;;4894560;29;44839;-82
2021/11/16 03:42:56;;;;;;;;;25.67;22.67;;;;;;;;4910754;29;45426;-81
2021/11/16 03:45:23;;;;;;;;;17.33;16.67;;;;;;;;4893792;29;45465;-81
2021/11/16 03:47:49;;;;;;;;;24.67;17.33;;;;;;;;4911691;29;45397;-81
2021/11/16 03:50:20;;;;;;;;;22.33;15.33;;;;;;;;4911967;29;45381;-81
2021/11/16 03:55:48;;;;;;;;;27.00;22.00;;;;;;;;4912683;29;45725;-81
2021/11/16 03:58:17;;;;;;;;;23.00;19.67;;;;;;;;4894653;28;45393;-82
2021/11/16 04:00:45;;;;;;;;;21.67;19.67;;;;;;;;4893025;29;45732;-82
2021/11/16 04:03:10;;;;;;;;;19.33;16.67;;;;;;;;4910502;29;45535;-82
2021/11/16 04:05:36;;;;;;;;;23.00;17.33;;;;;;;;4893414;29;45350;-82
2021/11/16 04:08:02;;;;;;;;;13.33;13.33;;;;;;;;4894206;29;44817;-82
2021/11/16 04:10:27;;;;;;;;;20.67;18.67;;;;;;;;4895078;29;44764;-82
2021/11/16 04:12:53;;;;;;;;;18.67;17.00;;;;;;;;4896380;29;46715;-82
2021/11/16 04:15:22;;;;;;;;;24.00;19.33;;;;;;;;4913731;28;44733;-82
2021/11/16 04:20:53;;;;;;;;;17.33;17.33;;;;;;;;4914412;28;45368;-82
2021/11/16 04:23:19;;;;;;;;;25.67;19.00;;;;;;;;4897303;28;47256;-82
2021/11/16 04:25:45;;;;;;;;;19.67;19.00;;;;;;;;4913981;28;45506;-82
2021/11/16 04:28:12;;;;;;;;;20.00;15.33;;;;;;;;4899002;28;45378;-82
2021/11/16 04:33:42;;;;;;;;;11.00;7.67;;;;;;;;4913580;29;45739;-82
2021/11/16 04:36:07;;;;;;;;;28.33;24.67;;;;;;;;4913950;28;45357;-82
2021/11/16 04:38:33;;;;;;;;;24.33;19.33;;;;;;;;4897178;28;45460;-82
2021/11/16 04:41:01;;;;;;;;;25.67;20.67;;;;;;;;4914787;29;45367;-79
2021/11/16 04:43:27;;;;;;;;;31.33;21.67;;;;;;;;4913456;29;45640;-80
2021/11/16 04:45:56;;;;;;;;;17.67;16.67;;;;;;;;4895866;29;45585;-81
2021/11/16 04:48:32;;;;;;;;;24.67;19.00;;;;;;;;4911781;29;45473;-81
2021/11/16 05:04:13;;;;;;;;;23.67;19.33;;;;;;;;4913643;29;45293;-81
2021/11/16 05:06:43;;;;;;;;;26.00;22.67;;;;;;;;4926097;28;45329;-82
2021/11/16 05:09:08;;;;;;;;;23.33;18.67;;;;;;;;4911468;28;45583;-82
2021/11/16 05:11:33;;;;;;;;;27.00;22.33;;;;;;;;4928696;28;44774;-81
2021/11/16 05:13:59;;;;;;;;;18.00;18.00;;;;;;;;4896227;29;47432;-82
2021/11/16 05:16:25;;;;;;;;;24.33;18.67;;;;;;;;4895172;29;45361;-81
2021/11/16 05:18:51;;;;;;;;;24.00;20.00;;;;;;;;4897247;29;45474;-81
2021/11/16 05:21:16;;;;;;;;;29.67;23.00;;;;;;;;4894922;29;45509;-81
2021/11/16 05:23:53;;;;;;;;;20.00;19.33;;;;;;;;4894865;29;47078;-81
2021/11/16 05:26:18;;;;;;;;;27.67;21.00;;;;;;;;4894253;29;45452;-81
2021/11/16 05:28:43;;;;;;;;;28.00;20.00;;;;;;;;4895339;29;44734;-81
2021/11/16 05:31:09;;;;;;;;;22.33;21.67;;;;;;;;4912222;29;45370;-81
2021/11/16 05:33:36;;;;;;;;;29.00;23.00;;;;;;;;4911719;29;45580;-81
2021/11/16 05:36:01;;;;;;;;;24.00;22.00;;;;;;;;4886194;29;45459;-80
2021/11/16 05:38:28;;;;;;;;;24.33;20.33;;;;;;;;4877923;29;45048;-81
2021/11/16 05:40:55;;;;;;;;;28.33;24.00;;;;;;;;4878190;29;45600;-81
2021/11/16 05:43:21;;;;;;;;;26.33;21.67;;;;;;;;4877593;29;47427;-81
2021/11/16 05:45:46;;;;;;;;;23.67;22.33;;;;;;;;4877073;29;45347;-81
2021/11/16 05:48:12;;;;;;;;;21.33;17.67;;;;;;;;4895921;29;44756;-81
2021/11/16 05:50:37;;;;;;;;;20.33;18.33;;;;;;;;4877975;29;45510;-81
2021/11/16 05:53:03;;;;;;;;;22.67;18.00;;;;;;;;4876848;29;47129;-81
2021/11/16 05:55:29;;;;;;;;;26.67;24.00;;;;;;;;4875737;29;45409;-82
2021/11/16 05:57:54;;;;;;;;;27.00;24.67;;;;;;;;4893464;29;44791;-81
2021/11/16 06:00:20;;;;;;;;;24.67;22.00;;;;;;;;4893465;29;45424;-81
2021/11/16 06:02:45;;;;;;;;;22.00;18.67;;;;;;;;4876452;29;46911;-81
2021/11/16 06:05:14;;;;;;;;;19.00;18.33;;;;;;;;4876176;29;45418;-81
2021/11/16 06:07:39;;;;;;;;;23.00;20.67;;;;;;;;4894082;29;45421;-81
2021/11/16 06:10:05;;;;;;;;;20.67;20.33;;;;;;;;4875737;29;45358;-82
2021/11/16 06:15:35;;;;;;;;;24.00;22.33;;;;;;;;4893305;29;45541;-81
2021/11/16 06:18:02;;;;;;;;;25.00;20.33;;;;;;;;4893193;29;45505;-82
2021/11/16 06:20:29;;;;;;;;;21.33;19.00;;;;;;;;4893497;29;45175;-83
2021/11/16 06:22:55;;;;;;;;;25.33;19.00;;;;;;;;4876672;29;47279;-81
2021/11/16 06:25:20;;;;;;;;;22.33;18.67;;;;;;;;4893152;29;45330;-81
2021/11/16 06:27:46;;;;;;;;;27.67;23.00;;;;;;;;4875769;29;44764;-81
2021/11/16 06:30:12;;;;;;;;;24.67;20.67;;;;;;;;4875449;29;45405;-81
2021/11/16 06:32:38;;;;;;;;;25.00;18.33;;;;;;;;4874691;29;46996;-81
2021/11/16 06:35:03;;;;;;;;;20.67;19.33;;;;;;;;4891397;29;44950;-82
2021/11/16 06:37:28;;;;;;;;;28.67;23.00;;;;;;;;4894473;29;44883;-82
2021/11/16 06:39:58;;;;;;;;;31.00;23.00;;;;;;;;4912953;28;45472;-82
2021/11/16 06:42:23;;;;;;;;;23.67;18.67;;;;;;;;4895671;28;46912;-82
2021/11/16 06:44:48;;;;;;;;;25.67;21.33;;;;;;;;4894127;29;45460;-80
2021/11/16 06:47:14;;;;;;;;;31.33;24.00;;;;;;;;4894206;29;44781;-80
2021/11/16 06:49:41;;;;;;;;;25.67;21.00;;;;;;;;4910899;29;45342;-83
2021/11/16 06:52:06;;;;;;;;;22.33;21.33;;;;;;;;4895349;29;46690;-82
2021/11/16 06:54:32;;;;;;;;;21.33;19.00;;;;;;;;4895610;29;45572;-81
2021/11/16 06:57:04;;;;;;;;;20.33;19.67;;;;;;;;4896690;29;45426;-81
2021/11/16 06:59:29;;;;;;;;;28.67;23.67;;;;;;;;4897151;29;45655;-82
2021/11/16 07:01:55;;;;;;;;;23.33;19.33;;;;;;;;4894937;28;46056;-82
2021/11/16 07:04:21;;;;;;;;;21.67;18.67;;;;;;;;4912179;28;45670;-82
2021/11/16 07:06:48;;;;;;;;;15.67;15.67;;;;;;;;4892466;29;45483;-82
2021/11/16 07:09:14;;;;;;;;;19.67;19.33;;;;;;;;4894598;29;45522;-81
2021/11/16 07:11:44;;;;;;;;;19.67;19.00;;;;;;;;4911550;29;45095;-82
2021/11/16 07:14:10;;;;;;;;;22.00;21.33;;;;;;;;4910251;29;45357;-80
2021/11/16 07:17:02;;;;;;;;;24.67;21.33;;;;;;;;4911399;29;44688;-81
2021/11/16 07:19:39;;;;;;;;;30.00;23.67;;;;;;;;4891006;29;44821;-81
2021/11/16 07:22:15;;;;;;;;;29.33;26.00;;;;;;;;4913684;29;45326;-83
2021/11/16 07:24:52;;;;;;;;;24.00;20.67;;;;;;;;4913320;29;45509;-82
2021/11/16 07:27:21;;;;;;;;;24.00;21.67;;;;;;;;4895827;29;45393;-83
2021/11/16 07:29:54;;;;;;;;;23.33;18.33;;;;;;;;4894348;29;44822;-81
2021/11/16 07:32:21;;;;;;;;;21.67;20.33;;;;;;;;4894829;29;47072;-81
2021/11/16 07:34:50;;;;;;;;;20.00;15.33;;;;;;;;4914203;29;45425;-82
2021/11/16 07:37:20;;;;;;;;;14.00;10.33;;;;;;;;4900469;28;45185;-82
2021/11/16 07:40:08;;;;;;;;;9.67;9.67;;;;;;;;4897108;29;45528;-81
2021/11/16 07:42:50;;;;;;;;;18.33;14.67;;;;;;;;4895574;29;48016;-81
2021/11/16 07:45:43;;;;;;;;;16.00;15.67;;;;;;;;4897110;29;45429;-81
2021/11/16 07:48:18;;;;;;;;;24.00;17.00;;;;;;;;4897282;29;45516;-80
2021/11/16 07:50:43;;;;;;;;;26.00;19.67;;;;;;;;4900531;29;44892;-81
2021/11/16 07:53:08;;;;;;;;;15.00;15.00;;;;;;;;4917353;29;45376;-81
2021/11/16 07:55:34;;;;;;;;;23.33;20.33;;;;;;;;4900408;29;45016;-82
2021/11/16 07:58:03;;;;;;;;;18.67;16.33;;;;;;;;4898508;29;45432;-81
2021/11/16 08:00:29;;;;;;;;;17.67;15.67;;;;;;;;4899558;29;44859;-81
2021/11/16 08:03:05;;;;;;;;;19.33;15.67;;;;;;;;4915915;29;46440;-82
2021/11/16 08:05:42;;;;;;;;;26.33;16.00;;;;;;;;4899838;29;45243;-82
2021/11/16 08:08:22;;;;;;;;;19.00;16.67;;;;;;;;4918125;29;45669;-81
2021/11/16 08:10:55;;;;;;;;;24.00;21.33;;;;;;;;4898955;29;45737;-81
2021/11/16 08:13:30;;;;;;;;;22.00;18.33;;;;;;;;4916499;29;45218;-81
2021/11/16 08:19:04;;;;;;;;;22.33;18.00;;;;;;;;4923252;29;45264;-85
2021/11/16 08:21:36;;;;;;;;;19.67;17.67;;;;;;;;4903838;29;44789;-81
2021/11/16 08:24:15;;;;;;;;;22.67;19.00;;;;;;;;4901320;29;46831;-82
2021/11/16 08:26:42;;;;;;;;;21.67;19.00;;;;;;;;4919289;29;45469;-82
2021/11/16 08:29:09;;;;;;;;;14.67;13.33;;;;;;;;4918924;29;44844;-82
2021/11/16 08:31:41;;;;;;;;;17.00;15.00;;;;;;;;4916995;29;44865;-80
2021/11/16 08:34:11;;;;;;;;;22.00;22.00;;;;;;;;4899948;29;47070;-81
2021/11/16 08:37:03;;;;;;;;;19.67;17.33;;;;;;;;4892651;29;45220;-82
2021/11/16 08:40:04;;;;;;;;;21.67;19.67;;;;;;;;4882422;29;45399;-82
2021/11/16 08:42:37;;;;;;;;;20.00;17.67;;;;;;;;4788355;29;45645;-81
2021/11/16 08:45:13;;;;;;;;;22.33;21.33;;;;;;;;4794716;29;45899;-82
2021/11/16 08:47:50;;;;;;;;;19.67;19.00;;;;;;;;4788388;29;45452;-81
2021/11/16 08:50:23;;;;;;;;;22.67;21.00;;;;;;;;4784127;29;45410;-82
2021/11/16 08:52:51;;;;;;;;;19.67;18.33;;;;;;;;4780328;29;45421;-82
2021/11/16 08:55:20;;;;;;;;;18.00;15.33;;;;;;;;4789997;29;45640;-82
2021/11/16 08:57:48;;;;;;;;;26.67;21.00;;;;;;;;4803694;29;44879;-82
2021/11/16 09:00:15;;;;;;;;;22.00;20.33;;;;;;;;4808306;29;45232;-81
2021/11/16 09:02:41;;;;;;;;;22.00;18.00;;;;;;;;4806556;29;45424;-82
2021/11/16 09:05:12;;;;;;;;;23.33;18.33;;;;;;;;4806895;29;46208;-82
2021/11/16 09:07:47;;;;;;;;;20.33;17.67;;;;;;;;4808141;29;45426;-82
2021/11/16 09:10:13;;;;;;;;;26.67;23.33;;;;;;;;4807738;29;44907;-82
2021/11/16 09:13:28;;;;;;;;;;;;;;;;;;;;;
2021/11/16 09:16:09;;;;;;;;;25.67;24.00;;;;;;;;4840548;29;45124;-83
2021/11/16 09:18:39;;;;;;;;;21.33;21.33;;;;;;;;4860106;29;45448;-81
2021/11/16 09:21:05;;;;;;;;;24.33;22.00;;;;;;;;4896073;29;44851;-83
2021/11/16 09:23:54;;;;;;;;;26.00;25.00;;;;;;;;4883445;29;45541;-83
2021/11/16 09:27:12;;;;;;;;;27.33;23.67;;;;;;;;4880166;29;45448;-83
2021/11/16 09:29:21;;;;;;;;;24.00;20.67;;;;;;;;4893331;29;45336;-83
2021/11/16 09:32:14;;;;;;;;;24.33;20.33;;;;;;;;4899067;29;45342;-82
2021/11/16 09:35:13;;;;;;;;;21.33;19.67;;;;;;;;4883412;29;45248;-82
2021/11/16 09:37:52;;;;;;;;;24.33;22.67;;;;;;;;4879912;29;46859;-81
2021/11/16 09:40:19;;;;;;;;;28.33;23.33;;;;;;;;4881546;29;45972;-81
2021/11/16 09:42:48;;;;;;;;;26.00;22.67;;;;;;;;4897935;29;45396;-82
2021/11/16 09:45:16;;;;;;;;;25.33;22.67;;;;;;;;4898118;29;44873;-82
2021/11/16 09:54:01;;;;;;;;;24.33;21.00;;;;;;;;4918139;28;45497;-82
2021/11/16 09:56:39;;;;;;;;;27.00;21.00;;;;;;;;4885930;29;45806;-83
2021/11/16 09:59:12;;;;;;;;;19.00;19.00;;;;;;;;4906545;29;46961;-84
2021/11/16 10:01:53;;;;;;;;;29.00;20.67;;;;;;;;4913639;28;45387;-84
2021/11/16 10:07:04;;;;;;;;;18.33;14.33;;;;;;;;5224150;23;46812;-84
2021/11/16 10:09:52;;;;;;;;;27.00;24.67;;;;;;;;4860790;29;45440;-83
2021/11/16 10:12:23;;;;;;;;;28.00;22.00;;;;;;;;4863759;29;45353;-82
2021/11/16 10:15:07;;;;;;;;;;;;;;;;;;;;;
2021/11/16 10:18:06;;;;;;;;;24.50;21.50;;;;;;;;4875825;29;64973;-82
2021/11/16 10:20:35;;;;;;;;;29.33;22.33;;;;;;;;4857598;29;45364;-81
2021/11/16 10:23:06;;;;;;;;;25.67;22.67;;;;;;;;4847679;29;45201;-81
2021/11/16 10:25:53;;;;;;;;;30.67;24.67;;;;;;;;4862260;29;45347;-83
2021/11/16 10:28:20;;;;;;;;;24.67;23.00;;;;;;;;4862871;29;44835;-81
2021/11/16 10:30:58;;;;;;;;;26.33;24.00;;;;;;;;4854066;29;46737;-80
2021/11/16 10:33:26;;;;;;;;;28.33;25.67;;;;;;;;4847797;29;44855;-81
2021/11/16 10:36:20;;;;;;;;;34.67;29.67;;;;;;;;4844373;29;44979;-81
2021/11/16 10:41:34;;;;;;;;;28.67;22.00;;;;;;;;4864969;29;45910;-82
2021/11/16 10:44:07;;;;;;;;;33.67;30.33;;;;;;;;4870126;29;45307;-82
2021/11/16 10:46:40;;;;;;;;;36.00;27.67;;;;;;;;4886419;29;44925;-82
2021/11/16 10:49:11;;;;;;;;;35.33;32.00;;;;;;;;4863411;29;44964;-81
2021/11/16 10:51:38;;;;;;;;;34.33;30.67;;;;;;;;4874498;29;45312;-83
2021/11/16 10:54:13;;;;;;;;;38.33;35.67;;;;;;;;4845535;29;45673;-83
2021/11/16 11:17:11;;;;;;;;;;;;;;;;;;;;;
2021/11/16 11:45:09;;;;;;;;;30.33;25.33;;;;;;;;4922987;23;45360;-82
2021/11/16 12:10:07;;;;;;;;;32.67;24.33;;;;;;;;4629225;23;46702;-82
2021/11/16 12:12:42;;;;;;;;;22.67;20.33;;;;;;;;4895354;28;45197;-84
2021/11/16 12:15:14;;;;;;;;;29.33;23.67;;;;;;;;4896406;29;45400;-82
2021/11/16 12:17:59;;;;;;;;;23.67;20.67;;;;;;;;4898601;28;45370;-83
2021/11/16 12:20:50;;;;;;;;;25.67;21.33;;;;;;;;4915330;29;45421;-83
2021/11/16 12:23:27;;;;;;;;;23.00;18.67;;;;;;;;4897150;28;45557;-85
2021/11/16 12:26:14;;;;;;;;;23.33;22.00;;;;;;;;4900001;28;45915;-85
2021/11/16 12:34:38;;;;;;;;;25.33;22.33;;;;;;;;5605732;23;46451;-83
2021/11/16 12:37:07;;;;;;;;;29.00;25.33;;;;;;;;4883190;29;44957;-83
2021/11/16 12:39:33;;;;;;;;;21.67;19.00;;;;;;;;4897304;29;44770;-83
2021/11/16 12:42:18;;;;;;;;;24.67;20.00;;;;;;;;4897129;29;45511;-83
2021/11/16 12:45:00;;;;;;;;;25.33;21.00;;;;;;;;4879832;29;46850;-84
2021/11/16 12:47:27;;;;;;;;;27.67;23.00;;;;;;;;4875183;29;45438;-85
2021/11/16 12:52:55;;;;;;;;;24.33;23.00;;;;;;;;4869122;29;45420;-84
2021/11/16 12:55:31;;;;;;;;;32.33;26.00;;;;;;;;4873788;29;46114;-82
2021/11/16 12:58:37;;;;;;;;;;;;;;;;;;;;;
2021/11/16 13:01:03;;;;;;;;;31.67;26.00;;;;;;;;4840219;29;67933;-82
2021/11/16 13:03:54;;;;;;;;;20.67;20.67;;;;;;;;4874736;29;45323;-85
2021/11/16 13:06:30;;;;;;;;;27.00;22.67;;;;;;;;4876953;29;45423;-83
2021/11/16 13:08:55;;;;;;;;;21.67;19.67;;;;;;;;4861824;29;44708;-84
2021/11/16 13:12:03;;;;;;;;;18.00;17.00;;;;;;;;4874584;29;45561;-83
2021/11/16 13:14:40;;;;;;;;;17.67;15.33;;;;;;;;4827682;29;45290;-84
2021/11/16 13:17:24;;;;;;;;;15.67;15.00;;;;;;;;4829882;29;48002;-82
2021/11/16 13:20:15;;;;;;;;;20.33;15.00;;;;;;;;4851092;29;45492;-83
2021/11/16 13:22:46;;;;;;;;;20.33;18.33;;;;;;;;4853629;29;44928;-83
2021/11/16 13:25:32;;;;;;;;;19.00;16.67;;;;;;;;4849417;29;46577;-82
2021/11/16 13:31:13;;;;;;;;;20.67;19.33;;;;;;;;4888782;29;45371;-81
2021/11/16 13:33:47;;;;;;;;;24.67;20.00;;;;;;;;4895577;29;44855;-81
2021/11/16 13:36:17;;;;;;;;;23.67;19.67;;;;;;;;4893915;29;45401;-82
2021/11/16 13:39:04;;;;;;;;;26.67;20.00;;;;;;;;4878654;29;45470;-81
2021/11/16 13:41:56;;;;;;;;;16.33;16.33;;;;;;;;4874231;29;45459;-82
2021/11/16 13:44:22;;;;;;;;;22.33;20.67;;;;;;;;4802741;29;44835;-82
2021/11/16 13:46:56;;;;;;;;;21.67;15.67;;;;;;;;4808244;29;45485;-82
2021/11/16 13:49:25;;;;;;;;;17.67;17.67;;;;;;;;4800086;29;46792;-82
2021/11/16 13:51:51;;;;;;;;;22.33;14.00;;;;;;;;4801024;29;45470;-82
2021/11/16 13:54:16;;;;;;;;;18.67;18.67;;;;;;;;4816648;29;44844;-82
2021/11/16 13:56:44;;;;;;;;;22.33;16.67;;;;;;;;4821195;29;45074;-83
2021/11/16 13:59:14;;;;;;;;;22.00;21.67;;;;;;;;4804814;29;47124;-82
2021/11/16 14:01:39;;;;;;;;;20.67;19.33;;;;;;;;4824938;29;45603;-83
2021/11/16 14:04:14;;;;;;;;;28.00;22.67;;;;;;;;4816117;29;45446;-81
2021/11/16 14:07:03;;;;;;;;;21.33;20.00;;;;;;;;4806679;29;44874;-82
2021/11/16 14:09:28;;;;;;;;;20.00;17.33;;;;;;;;4773773;29;47253;-82
2021/11/16 14:11:57;;;;;;;;;24.67;19.67;;;;;;;;4776616;29;44834;-81
2021/11/16 14:14:31;;;;;;;;;22.67;21.33;;;;;;;;4751169;29;44815;-81
2021/11/16 14:17:06;;;;;;;;;22.00;19.00;;;;;;;;4738928;29;45025;-82
2021/11/16 14:19:45;;;;;;;;;13.00;13.00;;;;;;;;4771964;29;46436;-82
2021/11/16 14:22:22;;;;;;;;;24.00;20.00;;;;;;;;4813521;29;45548;-81
2021/11/16 14:24:47;;;;;;;;;18.00;13.33;;;;;;;;4819466;29;44980;-82
2021/11/16 14:27:13;;;;;;;;;15.00;14.00;;;;;;;;4819322;29;45587;-81
2021/11/16 14:29:38;;;;;;;;;20.00;17.00;;;;;;;;4802833;29;46876;-81
2021/11/16 14:32:03;;;;;;;;;13.00;13.00;;;;;;;;4803820;29;45547;-82
2021/11/16 14:34:33;;;;;;;;;19.67;16.00;;;;;;;;4806868;29;45477;-83
2021/11/16 14:37:04;;;;;;;;;18.67;16.00;;;;;;;;4808667;29;45588;-80
2021/11/16 14:39:32;;;;;;;;;21.00;19.67;;;;;;;;4824083;29;46161;-81
2021/11/16 14:42:21;;;;;;;;;23.00;19.00;;;;;;;;4821583;29;45436;-83
2021/11/16 14:44:54;;;;;;;;;18.33;15.67;;;;;;;;4805120;29;45477;-81
2021/11/16 14:47:41;;;;;;;;;17.00;14.67;;;;;;;;4885413;29;45011;-81
2021/11/16 14:50:13;;;;;;;;;24.33;19.67;;;;;;;;4897172;29;46934;-82
2021/11/16 14:52:48;;;;;;;;;23.33;19.00;;;;;;;;4883769;29;44885;-82
2021/11/16 14:55:15;;;;;;;;;25.33;18.67;;;;;;;;4868769;29;45495;-81
2021/11/16 14:57:46;;;;;;;;;25.33;21.67;;;;;;;;4875447;29;45424;-82
2021/11/16 15:00:18;;;;;;;;;26.67;23.00;;;;;;;;4869319;29;47063;-82
2021/11/16 15:02:46;;;;;;;;;28.33;24.00;;;;;;;;4870962;29;45484;-83
2021/11/16 15:08:00;;;;;;;;;28.00;26.00;;;;;;;;3192704;26;45557;-81
2021/11/16 15:10:28;;;;;;;;;26.67;23.33;;;;;;;;4894412;29;45066;-82
2021/11/16 15:13:04;;;;;;;;;33.33;25.67;;;;;;;;4897722;29;44897;-81
2021/11/16 15:15:34;;;;;;;;;32.33;25.00;;;;;;;;4864085;29;45375;-82
2021/11/16 15:21:24;;;;;;;;;35.33;27.67;;;;;;;;4916648;29;45464;-83
2021/11/16 15:23:52;;;;;;;;;23.00;20.67;;;;;;;;4887073;29;45306;-82
2021/11/16 15:26:32;;;;;;;;;27.00;23.00;;;;;;;;4899780;28;46074;-81
2021/11/16 15:29:12;;;;;;;;;25.33;21.33;;;;;;;;4902526;29;44910;-83
2021/11/16 15:31:51;;;;;;;;;24.33;23.33;;;;;;;;4900270;29;47045;-81
2021/11/16 15:34:17;;;;;;;;;30.67;21.00;;;;;;;;4900056;28;45251;-82
2021/11/16 15:36:45;;;;;;;;;29.00;24.00;;;;;;;;4884437;29;45323;-83
2021/11/16 15:39:15;;;;;;;;;17.67;15.33;;;;;;;;4917326;28;45487;-80
2021/11/16 15:41:51;;;;;;;;;22.33;21.00;;;;;;;;4899898;29;46940;-82
2021/11/16 15:50:00;;;;;;;;;27.33;22.33;;;;;;;;4898369;29;45412;-82
2021/11/16 15:58:34;;;;;;;;;25.00;19.33;;;;;;;;4903227;29;45827;-83
2021/11/16 16:01:00;;;;;;;;;20.00;17.67;;;;;;;;4898020;29;45440;-81
2021/11/16 16:03:32;;;;;;;;;20.33;20.00;;;;;;;;4913487;29;46215;-82
2021/11/16 16:06:21;;;;;;;;;19.00;18.00;;;;;;;;4898398;28;45395;-82
2021/11/16 16:12:34;;;;;;;;;30.00;20.67;;;;;;;;4877244;29;45458;-82
2021/11/16 16:15:02;;;;;;;;;26.00;20.67;;;;;;;;4877240;29;45390;-83
2021/11/16 16:17:33;;;;;;;;;24.00;19.33;;;;;;;;4875394;29;44791;-82
2021/11/16 16:19:58;;;;;;;;;21.00;18.67;;;;;;;;4877203;29;45440;-82
2021/11/16 16:25:29;;;;;;;;;29.67;26.00;;;;;;;;4876823;29;45656;-81
2021/11/16 16:28:00;;;;;;;;;33.33;27.33;;;;;;;;4860671;29;45311;-82
2021/11/16 16:30:29;;;;;;;;;18.00;17.33;;;;;;;;4843990;29;45408;-82
2021/11/16 16:32:54;;;;;;;;;28.00;20.67;;;;;;;;4860051;29;44924;-82
2021/11/16 16:35:29;;;;;;;;;21.00;19.00;;;;;;;;4858550;29;46729;-82
2021/11/16 16:40:59;;;;;;;;;22.67;19.33;;;;;;;;4877379;29;45595;-82
2021/11/16 16:43:24;;;;;;;;;24.67;19.67;;;;;;;;4875488;29;45382;-82
2021/11/16 16:45:50;;;;;;;;;28.33;26.00;;;;;;;;4877339;29;45503;-80
2021/11/16 16:48:16;;;;;;;;;32.33;22.67;;;;;;;;4882635;29;44711;-81
2021/11/16 16:50:41;;;;;;;;;20.00;18.00;;;;;;;;4880303;29;45794;-82
2021/11/16 16:56:11;;;;;;;;;33.00;25.00;;;;;;;;4875234;29;44942;-82
2021/11/16 16:58:50;;;;;;;;;;;;;;;;;;;;;
2021/11/16 17:01:16;;;;;;;;;7.67;5.33;;;;;;;;4875841;29;67794;-81
2021/11/16 17:03:42;;;;;;;;;26.00;20.00;;;;;;;;4875617;29;45527;-82
2021/11/16 17:06:08;;;;;;;;;23.33;19.00;;;;;;;;4857058;29;46669;-80
2021/11/16 17:11:36;;;;;;;;;29.67;24.67;;;;;;;;4909750;28;45409;-83
2021/11/16 17:14:02;;;;;;;;;28.00;26.00;;;;;;;;4897566;29;45432;-84
2021/11/16 17:16:31;;;;;;;;;22.33;21.00;;;;;;;;4913629;29;45254;-83
2021/11/16 17:19:00;;;;;;;;;30.00;24.67;;;;;;;;4904830;29;45462;-83
2021/11/16 17:21:29;;;;;;;;;26.67;22.33;;;;;;;;4913015;29;45377;-83
2021/11/16 17:24:00;;;;;;;;;28.67;22.00;;;;;;;;4918589;29;44759;-82